Portersville, Pennsylvania
Current Conditions -  °F | °C
As of 10:15 AM on Thursday 30 Oct 2014 (Local Time) from KBTP Reporting Station
Overcast Overcast  
Wind Chill: 42°   Ceiling: 5000
Heat Index: 45°   Visibility: 10mi
Dew Point: 37°   Wind: 5mph
Humidity: 76%   Direction: 320°NW
Pressure: 30.11"   Gusts: NA
Location:  40.92°N, 80.14°W
Report Text: KBTP 301415Z AUTO 32004KT 10SM FEW017 FEW028 OVC050 07/03 A3011 RMK AO1
Loading
Personal Weather Stations






























Interactive Weather Map
Tropical Storm Tracking
New forecast layout! Learn more

10-Day Weather Forecast

Advertisements
Track Severe Weather on mobile